createdAt,value
2022-08-19T00:01:28.879Z,100352.95
2022-08-19T00:03:59.491Z,100356.08
2022-08-19T00:06:28.110Z,100354.50
2022-08-19T00:08:56.658Z,100354.38
2022-08-19T00:11:25.778Z,100349.61
2022-08-19T00:13:56.402Z,100348.75
2022-08-19T00:16:26.245Z,100347.29
2022-08-19T00:18:56.589Z,100352.33
2022-08-19T00:21:24.949Z,100350.78
2022-08-19T00:23:52.294Z,100349.16
2022-08-19T00:26:20.469Z,100346.60
2022-08-19T00:28:48.438Z,100348.50
2022-08-19T00:31:17.540Z,100355.06
2022-08-19T00:33:44.992Z,100360.62
2022-08-19T00:36:12.557Z,100358.75
2022-08-19T00:38:44.114Z,100359.88
2022-08-19T00:41:14.542Z,100359.94
2022-08-19T00:43:42.509Z,100358.27
2022-08-19T00:46:09.832Z,100356.16
2022-08-19T00:48:37.936Z,100349.79
2022-08-19T00:51:05.807Z,100348.84
2022-08-19T00:53:34.690Z,100351.55
2022-08-19T00:56:02.455Z,100348.70
2022-08-19T00:58:31.473Z,100350.09
2022-08-19T01:00:59.114Z,100343.32
2022-08-19T01:03:26.573Z,100347.06
2022-08-19T01:05:55.157Z,100348.30
2022-08-19T01:08:22.615Z,100350.25
2022-08-19T01:10:55.580Z,100355.86
2022-08-19T01:13:26.050Z,100347.08
2022-08-19T01:15:58.398Z,100345.30
2022-08-19T01:18:25.971Z,100344.41
2022-08-19T01:20:53.628Z,100348.52
2022-08-19T01:23:20.875Z,100348.73
2022-08-19T01:25:52.746Z,100353.98
2022-08-19T01:28:39.634Z,100353.31
2022-08-19T01:31:09.684Z,100355.63
2022-08-19T01:33:37.742Z,100351.77
2022-08-19T01:36:10.141Z,100350.67
2022-08-19T01:38:44.105Z,100354.54
2022-08-19T01:41:12.517Z,100351.41
2022-08-19T01:44:12.357Z,100355.14
2022-08-19T01:46:27.390Z,100349.28
2022-08-19T01:48:55.153Z,100351.36
2022-08-19T01:51:22.508Z,100349.89
2022-08-19T01:53:50.995Z,100346.86
2022-08-19T01:56:19.065Z,100350.92
2022-08-19T01:58:57.990Z,100344.65
2022-08-19T02:01:25.883Z,100344.10
2022-08-19T02:04:01.418Z,100343.15
2022-08-19T02:06:29.179Z,100342.05
2022-08-19T02:08:57.369Z,100345.05
2022-08-19T02:11:27.744Z,100347.99
2022-08-19T02:13:55.754Z,100352.96
2022-08-19T02:16:23.721Z,100356.33
2022-08-19T02:18:51.377Z,100357.69
2022-08-19T02:21:19.471Z,100361.67
2022-08-19T02:23:47.275Z,100366.05
2022-08-19T02:26:14.576Z,100362.09
2022-08-19T02:28:42.542Z,100365.86
2022-08-19T02:31:14.165Z,100371.62
2022-08-19T02:33:41.653Z,100376.73
2022-08-19T02:36:09.992Z,100381.44
2022-08-19T02:38:38.514Z,100379.63
2022-08-19T02:41:08.736Z,100376.98
2022-08-19T02:43:40.092Z,100381.19
2022-08-19T02:46:28.297Z,100379.70
2022-08-19T02:48:58.570Z,100375.55
2022-08-19T02:51:30.924Z,100377.55
2022-08-19T02:53:58.587Z,100379.76
2022-08-19T02:56:27.792Z,100384.04
2022-08-19T02:58:56.190Z,100387.21
2022-08-19T03:01:31.501Z,100387.68
2022-08-19T03:04:00.809Z,100380.40
2022-08-19T03:06:28.778Z,100383.02
2022-08-19T03:08:56.747Z,100379.65
2022-08-19T03:11:29.222Z,100378.62
2022-08-19T03:13:56.784Z,100379.85
2022-08-19T03:16:25.571Z,100380.59
2022-08-19T03:18:54.126Z,100384.83
2022-08-19T03:21:25.064Z,100386.88
2022-08-19T03:23:55.830Z,100389.02
2022-08-19T03:26:23.085Z,100390.27
2022-08-19T03:28:58.589Z,100392.72
2022-08-19T03:31:45.078Z,100400.85
2022-08-19T03:34:16.846Z,100402.97
2022-08-19T03:36:44.146Z,100402.77
2022-08-19T03:39:11.910Z,100409.58
2022-08-19T03:41:45.060Z,100418.76
2022-08-19T03:44:19.615Z,100419.79
2022-08-19T03:46:48.731Z,100416.54
2022-08-19T03:49:18.114Z,100410.33
2022-08-19T03:51:46.198Z,100407.59
2022-08-19T03:54:14.578Z,100410.34
2022-08-19T03:56:43.184Z,100412.06
2022-08-19T03:59:14.614Z,100414.27
2022-08-19T04:01:42.409Z,100415.90
2022-08-19T04:04:10.248Z,100412.40
2022-08-19T04:06:40.051Z,100414.50
2022-08-19T04:09:11.012Z,100422.42
2022-08-19T04:11:44.853Z,100420.56
2022-08-19T04:14:16.625Z,100424.30
2022-08-19T04:16:45.762Z,100426.13
2022-08-19T04:19:13.633Z,100426.52
2022-08-19T04:21:41.190Z,100421.46
2022-08-19T04:24:12.544Z,100419.46
2022-08-19T04:26:40.372Z,100421.71
2022-08-19T04:29:19.946Z,100424.52
2022-08-19T04:31:47.405Z,100423.09
2022-08-19T04:34:15.845Z,100420.37
2022-08-19T04:36:45.775Z,100417.67
2022-08-19T04:39:15.600Z,100418.94
2022-08-19T04:42:01.880Z,100421.87
2022-08-19T04:44:33.291Z,100422.78
2022-08-19T04:47:02.783Z,100418.65
2022-08-19T04:49:39.037Z,100419.45
2022-08-19T04:52:06.641Z,100421.73
2022-08-19T04:54:38.251Z,100424.17
2022-08-19T04:57:11.375Z,100419.89
2022-08-19T04:59:39.522Z,100423.17
2022-08-19T05:02:08.473Z,100425.45
2022-08-19T05:04:36.850Z,100423.12
2022-08-19T05:07:04.162Z,100421.09
2022-08-19T05:09:52.542Z,100419.06
2022-08-19T05:12:19.438Z,100423.31
2022-08-19T05:14:48.338Z,100423.04
2022-08-19T05:17:37.507Z,100419.65
2022-08-19T05:20:27.992Z,100421.17
2022-08-19T05:22:55.532Z,100425.58
2022-08-19T05:25:23.227Z,100429.68
2022-08-19T05:27:50.481Z,100433.84
2022-08-19T05:30:18.217Z,100429.30
2022-08-19T05:32:45.998Z,100434.12
2022-08-19T05:35:13.454Z,100434.42
2022-08-19T05:37:41.748Z,100437.14
2022-08-19T05:40:10.599Z,100436.20
2022-08-19T05:42:38.674Z,100434.86
2022-08-19T05:45:07.176Z,100436.59
2022-08-19T05:47:42.120Z,100431.07
2022-08-19T05:50:10.344Z,100429.58
2022-08-19T05:52:39.344Z,100428.70
2022-08-19T05:55:13.606Z,100430.44
2022-08-19T05:57:40.953Z,100427.68
2022-08-19T06:00:12.725Z,100422.15
2022-08-19T06:02:40.841Z,100426.52
2022-08-19T06:05:10.747Z,100427.77
2022-08-19T06:07:40.734Z,100425.88
2022-08-19T07:33:19.602Z,100446.19
2022-08-19T07:35:47.058Z,100445.31
2022-08-19T07:38:14.843Z,100447.61
2022-08-19T07:40:44.741Z,100446.64
2022-08-19T07:43:14.215Z,100447.98
2022-08-19T07:45:45.394Z,100444.08
2022-08-19T07:48:12.643Z,100447.94
2022-08-19T07:50:40.306Z,100445.15
2022-08-19T07:53:07.666Z,100438.77
2022-08-19T07:55:40.593Z,100443.04
2022-08-19T07:58:10.771Z,100451.15
2022-08-19T08:00:38.189Z,100451.38
2022-08-19T08:03:05.380Z,100452.54
2022-08-19T08:05:51.685Z,100453.92
2022-08-19T08:08:44.375Z,100453.38
2022-08-19T08:14:44.407Z,100457.70
2022-08-19T08:17:14.900Z,100453.58
2022-08-19T08:19:58.124Z,100454.70
2022-08-19T08:22:43.610Z,100450.61
2022-08-19T08:25:13.124Z,100449.40
2022-08-19T08:27:42.006Z,100454.23
2022-08-19T08:30:18.816Z,100453.11
2022-08-19T08:32:45.540Z,100457.29
2022-08-19T08:35:15.757Z,100457.53
2022-08-19T08:37:42.586Z,100458.52
2022-08-19T08:40:21.672Z,100460.08
2022-08-19T08:42:54.857Z,100462.02
2022-08-19T08:45:21.758Z,100458.46
2022-08-19T08:47:50.751Z,100458.55
2022-08-19T08:50:26.445Z,100451.63
2022-08-19T08:52:55.831Z,100453.19
2022-08-19T08:55:24.589Z,100456.08
2022-08-19T08:58:06.390Z,100451.81
2022-08-19T09:00:35.519Z,100456.07
2022-08-19T09:03:02.736Z,100464.01
2022-08-19T09:06:11.901Z,100458.88
2022-08-19T09:09:12.292Z,100461.69
2022-08-19T09:11:49.487Z,100466.09
2022-08-19T09:14:50.316Z,100464.06
2022-08-19T09:17:20.472Z,100464.52
2022-08-19T09:20:13.810Z,100455.10
2022-08-19T09:22:45.784Z,100455.11
2022-08-19T09:25:17.531Z,100452.38
2022-08-19T09:27:54.012Z,100456.63
2022-08-19T09:30:24.320Z,100458.59
2022-08-19T09:32:53.392Z,100463.48
2022-08-19T09:35:24.482Z,100462.83
2022-08-19T09:37:57.358Z,100463.65
2022-08-19T09:40:25.543Z,100462.89
2022-08-19T09:42:53.084Z,100459.16
2022-08-19T09:45:23.795Z,100457.42
2022-08-19T09:47:51.702Z,100457.42
2022-08-19T09:50:19.044Z,100455.42
2022-08-19T09:52:55.140Z,100451.84
2022-08-19T09:55:25.125Z,100456.84
2022-08-19T09:58:00.935Z,100460.15
2022-08-19T10:00:27.729Z,100458.50
2022-08-19T10:02:54.460Z,100458.17
2022-08-19T10:05:42.218Z,100457.17
2022-08-19T10:08:13.465Z,100460.68
2022-08-19T10:10:46.382Z,100466.17
2022-08-19T10:13:15.429Z,100473.58
2022-08-19T10:15:47.549Z,100470.33
2022-08-19T10:18:18.318Z,100470.77
2022-08-19T10:20:51.463Z,100470.10
2022-08-19T10:23:20.401Z,100472.86
2022-08-19T10:25:48.576Z,100468.12
2022-08-19T10:28:15.317Z,100464.48
2022-08-19T10:30:42.672Z,100471.00
2022-08-19T10:33:11.310Z,100468.44
2022-08-19T10:35:56.308Z,100466.95
2022-08-19T10:38:31.798Z,100461.36
2022-08-19T10:41:07.941Z,100459.77
2022-08-19T10:43:38.875Z,100461.72
2022-08-19T10:46:14.017Z,100464.73
2022-08-19T10:48:43.109Z,100466.84
2022-08-19T10:51:28.998Z,100468.95
2022-08-19T10:53:56.359Z,100469.15
2022-08-19T10:56:41.641Z,100469.10
2022-08-19T10:59:08.268Z,100464.56
2022-08-19T11:01:35.366Z,100467.90
2022-08-19T11:04:02.842Z,100464.23
2022-08-19T11:06:30.744Z,100465.33
2022-08-19T11:08:57.484Z,100461.62
2022-08-19T11:11:24.431Z,100456.41
2022-08-19T11:13:51.376Z,100462.57
2022-08-19T11:16:19.960Z,100461.08
2022-08-19T11:18:51.618Z,100462.70
2022-08-19T11:21:20.012Z,100463.25
2022-08-19T11:23:51.527Z,100456.77
2022-08-19T11:26:18.701Z,100459.36
2022-08-19T11:28:45.969Z,100457.73
2022-08-19T11:31:14.707Z,100455.61
2022-08-19T11:33:41.589Z,100453.48
2022-08-19T11:36:15.130Z,100455.91
2022-08-19T11:38:42.238Z,100454.10
2022-08-19T11:41:09.080Z,100452.19
2022-08-19T11:43:37.670Z,100453.45
2022-08-19T11:46:08.604Z,100450.74
2022-08-19T11:48:35.650Z,100446.20
2022-08-19T11:51:06.762Z,100444.33
2022-08-19T11:53:33.843Z,100444.67
2022-08-19T11:56:00.554Z,100444.34
2022-08-19T11:58:27.438Z,100450.00
2022-08-19T12:00:54.274Z,100442.98
2022-08-19T12:03:21.115Z,100443.70
2022-08-19T12:05:47.958Z,100446.85
2022-08-19T12:08:16.132Z,100443.46
2022-08-19T12:10:43.181Z,100441.13
2022-08-19T12:13:10.742Z,100440.59
2022-08-19T12:15:38.506Z,100434.09
2022-08-19T12:18:05.765Z,100432.89
2022-08-19T12:20:36.800Z,100432.02
2022-08-19T12:23:04.680Z,100425.08
2022-08-19T12:25:32.338Z,100425.70
2022-08-19T12:27:59.500Z,100419.71
2022-08-19T12:30:26.737Z,100417.44
2022-08-19T12:32:54.099Z,100418.09
2022-08-19T12:35:21.056Z,100414.45
2022-08-19T12:37:54.833Z,100411.50
2022-08-19T12:40:26.532Z,100411.34
2022-08-19T12:42:54.587Z,100415.81
2022-08-19T12:45:21.317Z,100411.07
2022-08-19T12:47:49.693Z,100407.65
2022-08-19T12:50:16.744Z,100408.67
2022-08-19T12:52:43.594Z,100408.02
2022-08-19T12:55:11.865Z,100407.56
2022-08-19T12:57:39.625Z,100408.46
2022-08-19T13:00:14.254Z,100401.69
2022-08-19T13:02:44.703Z,100396.26
2022-08-19T13:05:13.372Z,100394.48
2022-08-19T13:07:41.439Z,100394.61
2022-08-19T13:10:09.410Z,100394.22
2022-08-19T13:12:36.263Z,100393.08
2022-08-19T13:15:04.016Z,100389.08
2022-08-19T13:17:39.178Z,100393.05
2022-08-19T13:20:08.663Z,100392.84
2022-08-19T13:22:38.477Z,100394.79
2022-08-19T13:25:06.554Z,100396.68
2022-08-19T13:27:33.182Z,100399.08
2022-08-19T13:30:19.381Z,100400.88
2022-08-19T13:33:04.655Z,100398.90
2022-08-19T13:35:31.611Z,100397.48
2022-08-19T13:37:59.161Z,100394.91
2022-08-19T13:40:27.541Z,100390.45
2022-08-19T13:42:55.102Z,100388.16
2022-08-19T13:45:24.706Z,100389.64
2022-08-19T13:47:58.456Z,100384.02
2022-08-19T13:50:31.911Z,100383.27
2022-08-19T13:52:58.655Z,100387.86
2022-08-19T13:55:25.551Z,100390.11
2022-08-19T13:57:57.342Z,100397.40
2022-08-19T14:00:26.805Z,100393.73
2022-08-19T14:02:55.474Z,100394.53
2022-08-19T14:05:22.499Z,100392.84
2022-08-19T14:07:49.617Z,100389.52
2022-08-19T14:10:17.113Z,100390.73
2022-08-19T14:12:44.608Z,100389.94
2022-08-19T14:15:11.713Z,100388.25
2022-08-19T14:17:40.613Z,100384.09
2022-08-19T14:20:10.387Z,100381.27
2022-08-19T14:22:40.231Z,100377.80
2022-08-19T14:25:09.445Z,100380.98
2022-08-19T14:27:38.634Z,100381.50
2022-08-19T14:30:10.518Z,100384.55
2022-08-19T14:32:38.258Z,100389.38
2022-08-19T14:35:05.714Z,100386.36
2022-08-19T14:37:33.274Z,100385.77
2022-08-19T14:40:07.747Z,100387.26
2022-08-19T14:42:34.652Z,100391.30
2022-08-19T14:45:02.609Z,100391.29
2022-08-19T14:47:29.761Z,100387.66
2022-08-19T14:50:00.221Z,100387.51
2022-08-19T14:52:30.214Z,100392.40
2022-08-19T14:54:56.946Z,100396.53
2022-08-19T14:57:24.200Z,100394.17
2022-08-19T14:59:51.554Z,100392.05
2022-08-19T15:02:34.148Z,100394.95
2022-08-19T15:05:02.579Z,100396.63
2022-08-19T15:07:29.908Z,100398.37
2022-08-19T15:09:57.165Z,100399.21
2022-08-19T15:12:24.615Z,100399.52
2022-08-19T15:14:55.132Z,100397.05
2022-08-19T15:17:25.755Z,100398.65
2022-08-19T15:20:09.111Z,100396.73
2022-08-19T15:22:36.366Z,100390.48
2022-08-19T15:25:04.436Z,100391.83
2022-08-19T15:27:31.379Z,100389.98
2022-08-19T15:30:01.628Z,100384.79
2022-08-19T15:32:28.715Z,100391.23
2022-08-19T15:34:55.497Z,100394.62
2022-08-19T15:37:23.665Z,100388.30
2022-08-19T15:39:50.849Z,100394.33
2022-08-19T15:42:29.427Z,100395.49
2022-08-19T15:45:00.653Z,100394.88
2022-08-19T15:47:34.875Z,100394.60
2022-08-19T15:50:12.706Z,100397.92
2022-08-19T15:53:00.640Z,100395.48
2022-08-19T15:55:33.371Z,100400.33
2022-08-19T15:58:29.028Z,100400.10
2022-08-19T16:01:20.762Z,100402.89
2022-08-19T16:04:13.808Z,100402.59
2022-08-19T16:06:45.129Z,100404.73
2022-08-19T16:09:12.734Z,100400.23
2022-08-19T16:11:39.829Z,100406.88
2022-08-19T16:14:08.161Z,100407.65
2022-08-19T16:16:35.105Z,100408.11
2022-08-19T16:19:03.997Z,100409.96
2022-08-19T16:21:34.013Z,100414.34
2022-08-19T16:24:02.598Z,100415.02
2022-08-19T16:26:30.800Z,100414.34
2022-08-19T16:28:58.954Z,100416.16
2022-08-19T16:31:25.902Z,100421.32
2022-08-19T16:33:52.737Z,100424.66
2022-08-19T16:36:19.898Z,100427.81
2022-08-19T16:38:49.114Z,100430.02
2022-08-19T16:41:15.931Z,100435.73
2022-08-19T16:43:42.895Z,100432.73
2022-08-19T16:46:09.617Z,100432.61
2022-08-19T16:48:39.563Z,100439.45
2022-08-19T16:51:09.040Z,100442.30
2022-08-19T16:53:37.112Z,100445.22
2022-08-19T16:56:04.061Z,100448.63
2022-08-19T16:58:33.665Z,100448.17
2022-08-19T17:01:04.142Z,100447.45
2022-08-19T17:03:35.951Z,100452.20
2022-08-19T17:06:20.810Z,100454.35
2022-08-19T17:08:51.559Z,100451.02
2022-08-19T17:11:20.756Z,100458.94
2022-08-19T17:13:48.414Z,100459.59
2022-08-19T17:16:24.273Z,100465.29
2022-08-19T17:18:52.457Z,100472.56
2022-08-19T17:21:20.420Z,100479.04
2022-08-19T17:23:48.209Z,100482.55
2022-08-19T17:26:18.042Z,100482.02
2022-08-19T17:28:50.544Z,100483.13
2022-08-19T17:31:20.857Z,100485.25
2022-08-19T17:33:48.384Z,100489.02
2022-08-19T17:36:22.900Z,100485.14
2022-08-19T17:38:50.435Z,100489.86
2022-08-19T17:41:17.179Z,100492.75
2022-08-19T17:43:44.538Z,100496.27
2022-08-19T17:46:18.208Z,100498.55
2022-08-19T17:48:51.450Z,100500.45
2022-08-19T17:51:24.631Z,100505.86
2022-08-19T17:53:51.977Z,100504.60
2022-08-19T17:56:20.151Z,100507.13
2022-08-19T17:58:54.366Z,100508.73
2022-08-19T18:01:27.713Z,100506.02
2022-08-19T18:04:11.008Z,100506.98
2022-08-19T18:06:38.142Z,100505.68
2022-08-19T18:09:05.600Z,100502.51
2022-08-19T18:11:32.964Z,100501.08
2022-08-19T18:14:00.212Z,100506.23
2022-08-19T18:16:26.756Z,100507.64
2022-08-19T18:18:54.305Z,100514.88
2022-08-19T18:21:21.762Z,100510.56
2022-08-19T18:23:48.410Z,100513.48
2022-08-19T18:26:15.246Z,100511.38
2022-08-19T18:28:49.658Z,100511.46
2022-08-19T18:31:17.317Z,100506.73
2022-08-19T18:33:44.822Z,100505.96
2022-08-19T18:36:11.937Z,100495.38
2022-08-19T18:38:57.622Z,100499.98
2022-08-19T18:41:44.057Z,100496.97
2022-08-19T18:44:29.108Z,100493.06
2022-08-19T18:47:14.681Z,100494.23
2022-08-19T18:49:41.421Z,100491.92
2022-08-19T18:52:08.159Z,100488.80
2022-08-19T18:54:36.538Z,100483.13
2022-08-19T18:57:05.227Z,100483.77
2022-08-19T18:59:32.686Z,100484.33
2022-08-19T19:01:59.526Z,100482.55
2022-08-19T19:04:34.782Z,100479.52
2022-08-19T19:07:01.510Z,100476.67
2022-08-19T19:09:28.248Z,100475.39
2022-08-19T19:12:00.598Z,100476.13
2022-08-19T19:14:48.707Z,100472.18
2022-08-19T19:17:16.430Z,100472.70
2022-08-19T19:19:43.700Z,100467.92
2022-08-19T19:22:12.759Z,100463.96
2022-08-19T19:24:39.825Z,100462.59
2022-08-19T19:27:08.215Z,100458.08
2022-08-19T19:29:36.175Z,100456.48
2022-08-19T19:32:05.254Z,100454.74
2022-08-19T19:34:31.909Z,100455.36
2022-08-19T19:36:58.756Z,100454.27
2022-08-19T19:39:30.547Z,100455.35
2022-08-19T19:42:19.756Z,100454.09
2022-08-19T19:44:51.642Z,100451.39
2022-08-19T19:47:19.145Z,100451.50
2022-08-19T19:50:12.880Z,100451.93
2022-08-19T19:52:33.982Z,100452.87
2022-08-19T19:55:01.026Z,100457.40
2022-08-19T19:57:28.893Z,100459.33
2022-08-19T19:59:55.949Z,100463.82
2022-08-19T20:02:24.840Z,100467.53
2022-08-19T20:04:52.192Z,100465.13
2022-08-19T20:07:38.805Z,100459.35
2022-08-19T20:10:06.770Z,100461.14
2022-08-19T20:12:34.431Z,100463.67
2022-08-19T20:15:01.379Z,100463.42
2022-08-19T20:17:28.142Z,100459.13
2022-08-19T20:19:57.215Z,100462.41
2022-08-19T20:22:25.594Z,100459.36
2022-08-19T20:24:55.305Z,100459.18
2022-08-19T20:27:24.198Z,100458.34
2022-08-19T20:32:15.347Z,100463.85
2022-08-19T20:34:45.042Z,100467.95
2022-08-19T20:37:12.409Z,100471.30
2022-08-19T20:39:39.885Z,100464.77
2022-08-19T20:42:07.513Z,100467.70
2022-08-19T20:44:36.006Z,100469.69
2022-08-19T20:47:04.215Z,100469.61
2022-08-19T20:49:32.613Z,100471.98
2022-08-19T20:52:00.618Z,100470.20
2022-08-19T20:54:28.281Z,100477.96
2022-08-19T20:56:55.640Z,100475.39
2022-08-19T20:59:23.205Z,100475.41
2022-08-19T21:01:53.785Z,100481.14
2022-08-19T21:04:21.801Z,100486.73
2022-08-19T21:06:50.227Z,100483.27
2022-08-19T21:09:17.533Z,100483.60
2022-08-19T21:11:44.892Z,100484.80
2022-08-19T21:14:13.183Z,100485.63
2022-08-19T21:16:40.930Z,100486.55
2022-08-19T21:19:08.285Z,100486.39
2022-08-19T21:21:36.464Z,100478.98
2022-08-19T21:24:04.760Z,100479.48
2022-08-19T21:26:32.095Z,100475.25
2022-08-19T21:28:59.447Z,100473.30
2022-08-19T21:31:27.111Z,100477.92
2022-08-19T21:33:54.466Z,100481.30
2022-08-19T21:36:22.131Z,100482.36
2022-08-19T21:38:49.486Z,100480.33
2022-08-19T21:41:16.943Z,100475.43
2022-08-19T21:43:44.298Z,100474.84
2022-08-19T21:46:11.652Z,100472.35
2022-08-19T21:48:39.013Z,100474.02
2022-08-19T21:51:07.991Z,100473.09
2022-08-19T21:53:36.076Z,100476.02
2022-08-19T21:56:04.460Z,100476.92
2022-08-19T21:58:31.813Z,100481.19
2022-08-19T22:01:00.452Z,100481.70
2022-08-19T22:03:28.056Z,100487.61
2022-08-19T22:05:55.517Z,100487.37
2022-08-19T22:08:22.973Z,100487.16
2022-08-19T22:10:50.429Z,100487.08
2022-08-19T22:13:21.228Z,100489.41
2022-08-19T22:15:50.666Z,100492.30
2022-08-19T22:18:19.148Z,100492.03
2022-08-19T22:20:46.710Z,100492.89
2022-08-19T22:23:14.480Z,100490.76
2022-08-19T22:25:44.865Z,100491.36
2022-08-19T22:28:13.489Z,100488.56
2022-08-19T22:30:42.331Z,100484.64
2022-08-19T22:33:11.852Z,100483.19
2022-08-19T22:35:40.849Z,100483.12
2022-08-19T22:38:09.262Z,100480.27
2022-08-19T22:40:39.634Z,100479.20
2022-08-19T22:43:12.264Z,100481.14
2022-08-19T22:45:39.618Z,100485.11
2022-08-19T22:48:08.305Z,100483.84
2022-08-19T22:50:37.197Z,100477.27
2022-08-19T22:53:04.963Z,100476.98
2022-08-19T22:55:32.319Z,100479.96
2022-08-19T22:57:59.675Z,100482.67
2022-08-19T23:00:28.210Z,100489.43
2022-08-19T23:02:56.231Z,100496.70
2022-08-19T23:05:25.830Z,100501.05
2022-08-19T23:07:58.259Z,100504.27
2022-08-19T23:10:28.028Z,100499.88
2022-08-19T23:12:58.110Z,100500.98
2022-08-19T23:15:28.383Z,100501.14
2022-08-19T23:17:57.726Z,100495.46
2022-08-19T23:20:27.427Z,100496.34
2022-08-19T23:22:55.245Z,100496.19
2022-08-19T23:25:27.726Z,100501.67
2022-08-19T23:28:13.712Z,100499.02
2022-08-19T23:30:45.995Z,100501.02
2022-08-19T23:33:25.181Z,100501.08
2022-08-19T23:35:53.902Z,100501.58
2022-08-19T23:38:22.957Z,100502.34
2022-08-19T23:40:51.793Z,100506.39
2022-08-19T23:43:24.500Z,100506.21
2022-08-19T23:45:53.683Z,100513.16
2022-08-19T23:48:26.341Z,100511.02
2022-08-19T23:50:56.774Z,100510.25
2022-08-19T23:53:24.142Z,100505.13
2022-08-19T23:55:51.590Z,100505.55
2022-08-19T23:58:19.867Z,100508.19
